Time;durP1;ratioP1;P1;durP2;ratioP2;P2;SDS_P1;SDS_P2;PMS_P1;PMS_P2;Temp;Humidity;BMP_temperature;BMP_pressure;BME280_temperature;BME280_humidity;BME280_pressure;Samples;Min_cycle;Max_cycle;Signal;HPM_P1;HPM_P2
2023/04/27 00:01:08;;;;;;;;;;;3.90;97.50;;;;;;8386973;28;19932;-73
2023/04/27 00:05:10;;;;;;;;;;;3.80;97.30;;;;;;8380959;28;19938;-73
2023/04/27 00:09:12;;;;;;;;;;;3.80;97.60;;;;;;8375542;28;19925;-74
2023/04/27 00:13:14;;;;;;;;;;;3.80;97.50;;;;;;8388142;28;19927;-74
2023/04/27 00:17:16;;;;;;;;;;;3.70;97.20;;;;;;8390621;28;19935;-74
2023/04/27 00:21:18;;;;;;;;;;;3.60;97.00;;;;;;8392650;28;19931;-74
2023/04/27 00:25:19;;;;;;;;;;;3.60;97.20;;;;;;8374401;28;20027;-73
2023/04/27 00:29:21;;;;;;;;;;;3.50;97.30;;;;;;8381828;28;20270;-73
2023/04/27 00:33:22;;;;;;;;;;;3.50;97.50;;;;;;8392283;28;19947;-73
2023/04/27 00:37:24;;;;;;;;;;;3.40;97.30;;;;;;8385471;28;19963;-74
2023/04/27 00:41:26;;;;;;;;;;;3.40;97.20;;;;;;8390799;28;19925;-73
2023/04/27 00:45:27;;;;;;;;;;;3.30;97.10;;;;;;8400976;28;20400;-73
2023/04/27 00:49:29;;;;;;;;;;;3.30;97.20;;;;;;8381347;28;20295;-73
2023/04/27 00:53:31;;;;;;;;;;;3.20;97.30;;;;;;8382170;28;19924;-74
2023/04/27 00:57:33;;;;;;;;;;;3.20;97.20;;;;;;8382238;28;20336;-74
2023/04/27 01:01:35;;;;;;;;;;;3.10;97.10;;;;;;8379755;28;19967;-74
2023/04/27 01:05:36;;;;;;;;;;;3.10;97.00;;;;;;8381429;28;19924;-73
2023/04/27 01:09:38;;;;;;;;;;;3.10;97.20;;;;;;8385566;28;19924;-73
2023/04/27 01:13:40;;;;;;;;;;;3.00;97.20;;;;;;8393953;28;20021;-74
2023/04/27 01:17:42;;;;;;;;;;;3.00;96.90;;;;;;8383169;28;19924;-74
2023/04/27 01:21:44;;;;;;;;;;;2.90;96.90;;;;;;8403998;28;19928;-74
2023/04/27 01:25:45;;;;;;;;;;;2.90;97.10;;;;;;8380769;28;19933;-74
2023/04/27 01:29:47;;;;;;;;;;;2.80;97.10;;;;;;8391137;28;19924;-73
2023/04/27 01:33:48;;;;;;;;;;;2.80;97.10;;;;;;8390508;28;19986;-74
2023/04/27 01:37:50;;;;;;;;;;;2.80;96.80;;;;;;8385429;28;20372;-73
2023/04/27 01:41:52;;;;;;;;;;;2.80;96.80;;;;;;8388148;28;20067;-73
2023/04/27 01:45:53;;;;;;;;;;;2.70;96.60;;;;;;8383324;28;19940;-73
2023/04/27 01:49:55;;;;;;;;;;;2.60;96.70;;;;;;8404639;28;19936;-74
2023/04/27 01:53:57;;;;;;;;;;;2.60;96.90;;;;;;8387546;28;19992;-74
2023/04/27 01:57:58;;;;;;;;;;;2.50;97.00;;;;;;8385349;28;20319;-74
2023/04/27 02:02:00;;;;;;;;;;;2.50;96.90;;;;;;8378177;28;20025;-73
2023/04/27 02:06:02;;;;;;;;;;;2.50;96.90;;;;;;8383413;28;19925;-74
2023/04/27 02:10:04;;;;;;;;;;;2.50;97.20;;;;;;8389092;28;19995;-74
2023/04/27 02:14:06;;;;;;;;;;;2.50;97.20;;;;;;8383663;28;19979;-73
2023/04/27 02:18:07;;;;;;;;;;;2.40;97.00;;;;;;8380955;28;19971;-74
2023/04/27 02:22:09;;;;;;;;;;;2.50;97.00;;;;;;8376871;28;19979;-73
2023/04/27 02:46:25;;;;;;;;;;;2.20;96.90;;;;;;8385086;28;19927;-74
2023/04/27 02:50:27;;;;;;;;;;;2.20;96.70;;;;;;8394244;28;19929;-73
2023/04/27 02:54:29;;;;;;;;;;;2.20;96.60;;;;;;8391787;28;19924;-73
2023/04/27 02:58:31;;;;;;;;;;;2.10;96.70;;;;;;8392447;28;20359;-73
2023/04/27 03:02:33;;;;;;;;;;;2.10;96.60;;;;;;8395422;28;20403;-74
2023/04/27 03:06:34;;;;;;;;;;;2.10;96.60;;;;;;8374685;28;19932;-73
2023/04/27 03:10:36;;;;;;;;;;;2.00;96.60;;;;;;8412423;28;19933;-73
2023/04/27 03:14:37;;;;;;;;;;;2.00;96.70;;;;;;8393157;28;19928;-74
2023/04/27 03:18:39;;;;;;;;;;;2.00;96.70;;;;;;8388581;28;19929;-73
2023/04/27 03:22:41;;;;;;;;;;;1.90;96.60;;;;;;8387435;28;20403;-74
2023/04/27 03:26:43;;;;;;;;;;;1.90;96.60;;;;;;8395592;28;19931;-73
2023/04/27 03:30:45;;;;;;;;;;;1.90;96.50;;;;;;8395167;28;19936;-73
2023/04/27 03:34:46;;;;;;;;;;;1.80;96.50;;;;;;8389759;28;19976;-74
2023/04/27 03:48:55;;;;;;;;;;;1.70;96.70;;;;;;8398426;28;19919;-76
2023/04/27 03:52:56;;;;;;;;;;;1.70;96.70;;;;;;8386859;28;19971;-76
2023/04/27 03:56:58;;;;;;;;;;;1.70;96.90;;;;;;8402598;28;19924;-76
2023/04/27 04:01:00;;;;;;;;;;;1.70;97.00;;;;;;8387585;28;20292;-76
2023/04/27 04:05:01;;;;;;;;;;;1.70;96.80;;;;;;8388321;28;19963;-76
2023/04/27 04:09:03;;;;;;;;;;;1.70;96.80;;;;;;8385622;28;20388;-76
2023/04/27 04:13:05;;;;;;;;;;;1.70;96.80;;;;;;8384501;28;20351;-75
2023/04/27 04:17:08;;;;;;;;;;;1.60;96.80;;;;;;8387833;28;20368;-76
2023/04/27 04:21:10;;;;;;;;;;;1.60;96.80;;;;;;8375621;28;20361;-76
2023/04/27 04:25:11;;;;;;;;;;;1.60;96.60;;;;;;8399537;28;19924;-76
2023/04/27 04:29:13;;;;;;;;;;;1.60;96.60;;;;;;8388010;28;19967;-76
2023/04/27 04:33:16;;;;;;;;;;;1.60;97.00;;;;;;8392051;28;19938;-76
2023/04/27 04:37:17;;;;;;;;;;;1.60;96.80;;;;;;8394728;28;19924;-76
2023/04/27 04:41:19;;;;;;;;;;;1.60;96.80;;;;;;8395173;28;19924;-76
2023/04/27 04:45:21;;;;;;;;;;;1.70;97.00;;;;;;8395304;28;20010;-76
2023/04/27 04:49:22;;;;;;;;;;;1.70;97.10;;;;;;8390653;28;19979;-76
2023/04/27 04:53:25;;;;;;;;;;;1.70;97.60;;;;;;8390004;28;19939;-76
2023/04/27 04:57:26;;;;;;;;;;;1.80;97.60;;;;;;8383356;28;19932;-73
2023/04/27 05:01:28;;;;;;;;;;;1.90;97.60;;;;;;8393617;28;19932;-73
2023/04/27 05:05:30;;;;;;;;;;;2.00;97.70;;;;;;8392810;28;19924;-73
2023/04/27 05:09:31;;;;;;;;;;;2.10;98.10;;;;;;8389400;28;19925;-73
2023/04/27 05:13:34;;;;;;;;;;;2.20;98.30;;;;;;8379487;28;19923;-73
2023/04/27 05:17:36;;;;;;;;;;;2.30;98.50;;;;;;8388790;28;20005;-73
2023/04/27 05:21:37;;;;;;;;;;;2.30;98.40;;;;;;8394589;28;20387;-73
2023/04/27 05:25:42;;;;;;;;;;;2.50;99.10;;;;;;8407848;28;19935;-73
2023/04/27 05:29:43;;;;;;;;;;;2.60;99.60;;;;;;8397053;28;19924;-73
2023/04/27 05:33:45;;;;;;;;;;;2.80;99.90;;;;;;8391389;28;20346;-73
2023/04/27 05:37:47;;;;;;;;;;;3.00;99.90;;;;;;8384287;28;19933;-73
2023/04/27 05:41:49;;;;;;;;;;;3.30;99.90;;;;;;8388621;28;19924;-73
2023/04/27 05:45:50;;;;;;;;;;;3.40;99.90;;;;;;8389509;28;19925;-73
2023/04/27 05:49:52;;;;;;;;;;;3.70;99.90;;;;;;8386077;28;20285;-74
2023/04/27 05:53:54;;;;;;;;;;;3.90;99.90;;;;;;8397701;28;20328;-73
2023/04/27 05:57:55;;;;;;;;;;;4.10;99.90;;;;;;8397757;28;19941;-73
2023/04/27 06:02:08;;;;;;;;;;;4.30;99.90;;;;;;8370392;28;19932;-73
2023/04/27 06:06:10;;;;;;;;;;;4.50;99.90;;;;;;8385239;28;19928;-73
2023/04/27 06:10:11;;;;;;;;;;;4.70;99.90;;;;;;8387108;28;20299;-74
2023/04/27 06:14:13;;;;;;;;;;;4.80;99.90;;;;;;8394101;28;20433;-73
2023/04/27 06:18:15;;;;;;;;;;;5.00;99.90;;;;;;8401061;28;19982;-74
2023/04/27 06:22:17;;;;;;;;;;;5.20;99.90;;;;;;8400514;28;20335;-73
2023/04/27 06:26:18;;;;;;;;;;;5.30;99.90;;;;;;8393094;28;19928;-74
2023/04/27 06:30:20;;;;;;;;;;;5.50;99.90;;;;;;8368135;28;20447;-74
2023/04/27 06:34:21;;;;;;;;;;;5.60;99.90;;;;;;8389137;28;20028;-74
2023/04/27 06:38:23;;;;;;;;;;;5.80;99.90;;;;;;8394688;28;19925;-74
2023/04/27 06:42:25;;;;;;;;;;;6.00;99.90;;;;;;8392465;28;19924;-73
2023/04/27 06:46:27;;;;;;;;;;;6.20;99.90;;;;;;8397101;28;19929;-74
2023/04/27 06:50:29;;;;;;;;;;;6.40;99.90;;;;;;8395273;28;20271;-73
2023/04/27 06:54:31;;;;;;;;;;;6.60;99.90;;;;;;8404392;28;19929;-73
2023/04/27 06:58:33;;;;;;;;;;;6.80;99.90;;;;;;8397545;28;19939;-73
2023/04/27 07:02:34;;;;;;;;;;;7.00;99.90;;;;;;8398409;28;20030;-73
2023/04/27 07:06:36;;;;;;;;;;;7.10;99.90;;;;;;8386522;28;20319;-74
2023/04/27 07:10:38;;;;;;;;;;;7.30;99.90;;;;;;8388779;28;20372;-74
2023/04/27 07:14:39;;;;;;;;;;;7.30;99.90;;;;;;8400327;28;19939;-74
2023/04/27 07:18:41;;;;;;;;;;;7.50;99.90;;;;;;8398672;28;20451;-74
2023/04/27 07:22:44;;;;;;;;;;;7.70;99.90;;;;;;8395313;28;19924;-74
2023/04/27 07:26:45;;;;;;;;;;;7.90;99.90;;;;;;8396032;28;19928;-74
2023/04/27 07:30:47;;;;;;;;;;;8.10;99.90;;;;;;8396739;28;19935;-74
2023/04/27 07:34:49;;;;;;;;;;;8.30;99.90;;;;;;8385133;28;20022;-74
2023/04/27 07:38:56;;;;;;;;;;;8.40;99.90;;;;;;8397695;28;19925;-74
2023/04/27 07:42:58;;;;;;;;;;;8.60;99.90;;;;;;8385947;28;20020;-73
2023/04/27 07:47:03;;;;;;;;;;;8.70;99.90;;;;;;8377979;28;19925;-75
2023/04/27 07:51:05;;;;;;;;;;;8.90;99.90;;;;;;8401304;28;19939;-74
2023/04/27 07:55:07;;;;;;;;;;;9.10;99.90;;;;;;8380856;28;20016;-73
2023/04/27 07:59:08;;;;;;;;;;;9.30;99.90;;;;;;8392202;28;19929;-74
2023/04/27 08:03:10;;;;;;;;;;;9.40;99.90;;;;;;8381314;28;19924;-73
2023/04/27 08:07:13;;;;;;;;;;;9.60;99.90;;;;;;8361084;28;19932;-74
2023/04/27 08:11:15;;;;;;;;;;;9.70;99.90;;;;;;8383456;28;19978;-73
2023/04/27 08:15:17;;;;;;;;;;;9.80;99.90;;;;;;8370304;28;19938;-74
2023/04/27 08:19:19;;;;;;;;;;;9.80;99.90;;;;;;8391666;28;19939;-74
2023/04/27 08:23:20;;;;;;;;;;;9.90;99.90;;;;;;8363657;28;19968;-74
2023/04/27 08:27:22;;;;;;;;;;;10.00;99.90;;;;;;8382332;28;19985;-74
2023/04/27 08:31:24;;;;;;;;;;;10.20;99.90;;;;;;8399486;28;19924;-74
2023/04/27 08:35:25;;;;;;;;;;;10.30;99.90;;;;;;8384285;28;20338;-74
2023/04/27 08:39:27;;;;;;;;;;;10.40;99.90;;;;;;8392202;28;19963;-74
2023/04/27 08:43:33;;;;;;;;;;;10.40;99.90;;;;;;8397682;28;19954;-74
2023/04/27 08:47:37;;;;;;;;;;;10.50;99.90;;;;;;8400155;28;19928;-74
2023/04/27 08:51:44;;;;;;;;;;;10.60;99.90;;;;;;8392048;28;19924;-73
2023/04/27 08:55:46;;;;;;;;;;;10.90;99.90;;;;;;8391309;28;19924;-74
2023/04/27 08:59:56;;;;;;;;;;;11.00;99.90;;;;;;8396402;28;19994;-73
2023/04/27 09:03:58;;;;;;;;;;;11.10;99.90;;;;;;8370093;28;19933;-74
2023/04/27 09:08:04;;;;;;;;;;;11.20;99.90;;;;;;8384649;28;20292;-74
2023/04/27 09:12:32;;;;;;;;;;;11.30;99.90;;;;;;8391758;28;20425;-74
2023/04/27 09:16:34;;;;;;;;;;;11.50;99.90;;;;;;8390783;28;19924;-74
2023/04/27 09:20:41;;;;;;;;;;;11.60;99.90;;;;;;8400091;28;19932;-74
2023/04/27 09:34:44;;;;;;;;;;;12.20;99.90;;;;;;8389425;28;20387;-74
2023/04/27 09:38:46;;;;;;;;;;;12.10;99.90;;;;;;8389378;28;19924;-74
2023/04/27 09:58:08;;;;;;;;;;;12.90;99.90;;;;;;8395119;28;20070;-74
2023/04/27 10:02:14;;;;;;;;;;;13.10;99.90;;;;;;8378177;28;19924;-74
2023/04/27 10:06:34;;;;;;;;;;;13.20;99.90;;;;;;8393734;28;19932;-74
2023/04/27 10:11:02;;;;;;;;;;;13.30;99.90;;;;;;8408686;28;19934;-75
2023/04/27 10:15:14;;;;;;;;;;;13.30;98.50;;;;;;8377484;28;19924;-74
2023/04/27 10:19:16;;;;;;;;;;;13.40;98.70;;;;;;8395450;28;19930;-74
2023/04/27 10:23:24;;;;;;;;;;;13.70;99.90;;;;;;8397583;28;19931;-74
2023/04/27 10:27:26;;;;;;;;;;;14.00;99.30;;;;;;8402435;28;19932;-74
2023/04/27 10:31:28;;;;;;;;;;;14.30;99.90;;;;;;8392110;28;20004;-74
2023/04/27 10:35:34;;;;;;;;;;;14.50;99.90;;;;;;8397937;28;20430;-74
2023/04/27 10:39:40;;;;;;;;;;;14.80;99.90;;;;;;8391719;28;19935;-75
2023/04/27 10:59:02;;;;;;;;;;;16.20;99.90;;;;;;8392886;28;20292;-75
2023/04/27 11:03:11;;;;;;;;;;;16.40;99.90;;;;;;8393153;28;20388;-75
2023/04/27 11:07:22;;;;;;;;;;;16.70;99.90;;;;;;8381621;28;19951;-74
2023/04/27 11:11:25;;;;;;;;;;;17.10;99.90;;;;;;8393898;28;19974;-74
2023/04/27 11:30:36;;;;;;;;;;;18.00;99.90;;;;;;8398751;28;19939;-75
2023/04/27 11:34:38;;;;;;;;;;;17.80;99.90;;;;;;8380952;28;19925;-74
2023/04/27 11:38:43;;;;;;;;;;;17.70;99.90;;;;;;8403750;28;19935;-74
2023/04/27 11:42:55;;;;;;;;;;;17.60;99.90;;;;;;8369354;28;19978;-74
2023/04/27 11:46:57;;;;;;;;;;;17.90;99.90;;;;;;8346286;28;19924;-74
2023/04/27 11:50:59;;;;;;;;;;;18.20;99.90;;;;;;8369737;28;19935;-73
2023/04/27 11:55:02;;;;;;;;;;;18.50;99.90;;;;;;8368122;28;19947;-75
2023/04/27 11:59:04;;;;;;;;;;;18.80;99.90;;;;;;8364285;28;19925;-75
2023/04/27 12:03:06;;;;;;;;;;;18.60;99.70;;;;;;8349173;28;19977;-74
2023/04/27 12:07:08;;;;;;;;;;;18.20;99.90;;;;;;8374481;28;19925;-74
2023/04/27 12:11:10;;;;;;;;;;;17.90;99.90;;;;;;8378218;28;19982;-74
2023/04/27 12:15:11;;;;;;;;;;;18.10;99.90;;;;;;8372931;28;19932;-75
2023/04/27 12:19:13;;;;;;;;;;;18.50;99.20;;;;;;8343670;28;20415;-74
2023/04/27 12:23:15;;;;;;;;;;;18.80;99.90;;;;;;8359905;28;19933;-75
2023/04/27 12:27:17;;;;;;;;;;;18.80;99.90;;;;;;8366330;28;19987;-75
2023/04/27 12:31:23;;;;;;;;;;;18.50;99.90;;;;;;8363336;28;19924;-74
2023/04/27 12:35:30;;;;;;;;;;;18.30;99.90;;;;;;8382122;28;19936;-74
2023/04/27 12:39:32;;;;;;;;;;;18.00;95.40;;;;;;8381038;28;19986;-74
2023/04/27 12:43:37;;;;;;;;;;;17.80;99.00;;;;;;8364418;28;19929;-74
2023/04/27 12:47:39;;;;;;;;;;;17.40;97.00;;;;;;8366157;28;19928;-75
2023/04/27 12:57:05;;;;;;;;;;;17.60;93.20;;;;;;8357622;28;19940;-75
2023/04/27 13:01:13;;;;;;;;;;;17.80;98.40;;;;;;8368056;28;20280;-74
2023/04/27 13:10:26;;;;;;;;;;;17.80;94.30;;;;;;8361795;28;20426;-75
2023/04/27 13:14:29;;;;;;;;;;;17.50;88.90;;;;;;8342157;28;19936;-75
2023/04/27 13:18:30;;;;;;;;;;;17.60;94.70;;;;;;8358030;28;19935;-75
2023/04/27 13:22:35;;;;;;;;;;;17.90;93.60;;;;;;8365424;28;19925;-74
2023/04/27 13:26:37;;;;;;;;;;;18.30;97.90;;;;;;8359437;28;19943;-74
2023/04/27 13:30:38;;;;;;;;;;;18.50;90.90;;;;;;8363210;28;20504;-75
2023/04/27 13:34:40;;;;;;;;;;;18.50;88.80;;;;;;8362157;28;19940;-75
2023/04/27 13:38:42;;;;;;;;;;;18.30;91.40;;;;;;8365161;28;20393;-75
2023/04/27 13:42:44;;;;;;;;;;;18.40;90.40;;;;;;8360962;28;19930;-75
2023/04/27 13:46:45;;;;;;;;;;;18.50;96.20;;;;;;8348007;28;20368;-74
2023/04/27 13:50:47;;;;;;;;;;;18.60;94.60;;;;;;8359389;28;19925;-75
2023/04/27 13:54:49;;;;;;;;;;;18.80;94.10;;;;;;8368755;28;19936;-75
2023/04/27 13:58:50;;;;;;;;;;;19.00;96.00;;;;;;8374716;28;19928;-75
2023/04/27 14:02:52;;;;;;;;;;;19.20;95.80;;;;;;8375808;28;20007;-76
2023/04/27 14:06:54;;;;;;;;;;;19.60;94.00;;;;;;8377633;28;19983;-75
2023/04/27 14:10:57;;;;;;;;;;;20.00;91.00;;;;;;8372730;28;19980;-75
2023/04/27 14:14:59;;;;;;;;;;;20.00;92.40;;;;;;8379308;28;19956;-76
2023/04/27 14:19:00;;;;;;;;;;;20.20;98.30;;;;;;8380496;28;20395;-75
2023/04/27 14:23:04;;;;;;;;;;;20.30;94.90;;;;;;8374110;28;20197;-75
2023/04/27 14:27:06;;;;;;;;;;;20.30;97.70;;;;;;8393005;28;20066;-75
2023/04/27 14:31:08;;;;;;;;;;;20.10;92.70;;;;;;8381537;28;19939;-76
2023/04/27 14:35:10;;;;;;;;;;;20.10;97.60;;;;;;8379369;28;20616;-77
2023/04/27 14:39:12;;;;;;;;;;;20.30;96.50;;;;;;8364577;28;19933;-75
2023/04/27 14:43:13;;;;;;;;;;;20.60;95.90;;;;;;8372097;28;19981;-75
2023/04/27 14:47:15;;;;;;;;;;;20.70;97.90;;;;;;8378439;28;19939;-76
2023/04/27 14:51:17;;;;;;;;;;;20.60;91.90;;;;;;8369748;28;19979;-71
2023/04/27 14:55:18;;;;;;;;;;;20.40;97.50;;;;;;8358883;28;20027;-71
2023/04/27 14:59:21;;;;;;;;;;;20.30;93.70;;;;;;8361357;28;20291;-71
2023/04/27 15:03:23;;;;;;;;;;;20.40;96.70;;;;;;8363178;28;19939;-71
2023/04/27 15:07:25;;;;;;;;;;;20.30;95.90;;;;;;8366077;28;19924;-71
2023/04/27 15:11:27;;;;;;;;;;;20.30;92.60;;;;;;8348743;28;19925;-71
2023/04/27 15:15:28;;;;;;;;;;;20.20;92.70;;;;;;8359338;28;19924;-71
2023/04/27 15:19:30;;;;;;;;;;;20.00;92.40;;;;;;8373889;28;20803;-71
2023/04/27 15:23:33;;;;;;;;;;;19.90;96.30;;;;;;8363696;28;19925;-71
2023/04/27 15:27:35;;;;;;;;;;;20.00;95.20;;;;;;8364670;28;20334;-71
2023/04/27 15:31:37;;;;;;;;;;;20.00;94.50;;;;;;8362560;28;20395;-71
2023/04/27 15:35:42;;;;;;;;;;;20.00;92.60;;;;;;8360442;28;19929;-71
2023/04/27 15:39:45;;;;;;;;;;;20.20;95.00;;;;;;8340555;28;19925;-71
2023/04/27 15:43:47;;;;;;;;;;;20.50;96.00;;;;;;8361094;28;19944;-71
2023/04/27 15:47:49;;;;;;;;;;;20.50;85.30;;;;;;8364093;28;19932;-71
2023/04/27 15:51:54;;;;;;;;;;;20.20;91.20;;;;;;8363099;28;19940;-71
2023/04/27 15:55:55;;;;;;;;;;;20.10;95.80;;;;;;8359412;28;19987;-71
2023/04/27 15:59:57;;;;;;;;;;;19.90;89.50;;;;;;8343277;28;20308;-71
2023/04/27 16:03:59;;;;;;;;;;;19.90;88.10;;;;;;8356062;28;20026;-71
2023/04/27 16:08:01;;;;;;;;;;;19.90;92.20;;;;;;8356942;28;19937;-71
2023/04/27 16:12:02;;;;;;;;;;;20.10;93.00;;;;;;8353507;28;19951;-71
2023/04/27 16:16:07;;;;;;;;;;;20.50;94.80;;;;;;8376677;28;19940;-71
2023/04/27 16:20:08;;;;;;;;;;;20.50;89.10;;;;;;8354338;28;19940;-71
2023/04/27 16:24:11;;;;;;;;;;;20.30;90.10;;;;;;8370103;28;20443;-72
2023/04/27 16:28:12;;;;;;;;;;;20.00;90.80;;;;;;8348040;28;19928;-71
2023/04/27 16:32:16;;;;;;;;;;;19.70;89.80;;;;;;8352665;28;19964;-71
2023/04/27 16:36:17;;;;;;;;;;;19.60;91.10;;;;;;8353577;28;19932;-71
2023/04/27 16:40:19;;;;;;;;;;;19.30;77.30;;;;;;8351283;28;20003;-71
2023/04/27 16:44:22;;;;;;;;;;;19.00;87.50;;;;;;8354550;28;19932;-71
2023/04/27 16:48:24;;;;;;;;;;;18.80;86.50;;;;;;8358108;28;19940;-71
2023/04/27 16:52:25;;;;;;;;;;;18.50;77.10;;;;;;8355263;28;19936;-71
2023/04/27 16:56:28;;;;;;;;;;;18.10;80.90;;;;;;8353132;28;19983;-71
2023/04/27 17:00:30;;;;;;;;;;;17.70;76.60;;;;;;8348683;28;20314;-71
2023/04/27 17:04:34;;;;;;;;;;;17.50;80.30;;;;;;8337468;28;19977;-71
2023/04/27 17:08:35;;;;;;;;;;;17.40;82.50;;;;;;8354395;28;19940;-71
2023/04/27 17:12:37;;;;;;;;;;;17.40;81.40;;;;;;8351652;28;20312;-71
2023/04/27 17:16:39;;;;;;;;;;;17.30;80.10;;;;;;8363180;28;19928;-71
2023/04/27 17:20:40;;;;;;;;;;;17.20;81.00;;;;;;8361056;28;20007;-71
2023/04/27 17:24:42;;;;;;;;;;;17.00;79.90;;;;;;8360148;28;19979;-71
2023/04/27 17:28:44;;;;;;;;;;;16.90;78.80;;;;;;8362409;28;19976;-71
2023/04/27 17:32:46;;;;;;;;;;;16.70;78.50;;;;;;8360651;28;19928;-71
2023/04/27 17:36:48;;;;;;;;;;;16.50;81.30;;;;;;8356230;28;20015;-71
2023/04/27 17:40:49;;;;;;;;;;;16.40;80.70;;;;;;8359332;28;19925;-71
2023/04/27 17:44:51;;;;;;;;;;;16.30;80.10;;;;;;8361380;28;19929;-71
2023/04/27 17:48:53;;;;;;;;;;;16.20;80.50;;;;;;8357012;28;19971;-71
2023/04/27 17:52:54;;;;;;;;;;;16.10;80.40;;;;;;8356851;28;19943;-71
2023/04/27 17:56:56;;;;;;;;;;;16.00;79.90;;;;;;8358061;28;20031;-71
2023/04/27 18:00:58;;;;;;;;;;;15.90;80.00;;;;;;8348208;28;20367;-71
2023/04/27 18:04:59;;;;;;;;;;;15.70;78.00;;;;;;8366591;28;20384;-71
2023/04/27 18:09:02;;;;;;;;;;;15.60;80.90;;;;;;8365038;28;20997;-71
2023/04/27 18:13:03;;;;;;;;;;;15.50;79.10;;;;;;8348742;28;20026;-71
2023/04/27 18:17:05;;;;;;;;;;;15.50;79.80;;;;;;8365124;28;19939;-71
2023/04/27 18:21:07;;;;;;;;;;;15.40;78.90;;;;;;8362324;28;19932;-71
2023/04/27 18:25:09;;;;;;;;;;;15.30;78.40;;;;;;8366124;28;20373;-71
2023/04/27 18:29:10;;;;;;;;;;;15.20;79.70;;;;;;8372160;28;20333;-71
2023/04/27 18:33:12;;;;;;;;;;;15.10;78.90;;;;;;8348041;28;20314;-71
2023/04/27 18:37:14;;;;;;;;;;;15.10;77.60;;;;;;8361002;28;19933;-71
2023/04/27 18:41:15;;;;;;;;;;;15.00;78.50;;;;;;8368815;28;19935;-71
2023/04/27 18:45:17;;;;;;;;;;;14.90;79.00;;;;;;8367860;28;19925;-71
2023/04/27 18:49:22;;;;;;;;;;;14.80;78.90;;;;;;8362958;28;19932;-71
2023/04/27 18:53:25;;;;;;;;;;;14.80;79.30;;;;;;8363032;28;20051;-71
2023/04/27 18:57:26;;;;;;;;;;;14.70;79.50;;;;;;8362370;28;20007;-71
2023/04/27 19:01:31;;;;;;;;;;;14.70;79.30;;;;;;8358743;28;19925;-71
2023/04/27 19:05:33;;;;;;;;;;;14.60;79.40;;;;;;8362299;28;19928;-71
2023/04/27 19:09:34;;;;;;;;;;;14.50;79.20;;;;;;8362112;28;19929;-71
2023/04/27 19:13:39;;;;;;;;;;;14.40;78.90;;;;;;8346195;28;19925;-71
2023/04/27 19:17:41;;;;;;;;;;;14.30;79.10;;;;;;8363123;28;19971;-71
2023/04/27 19:21:42;;;;;;;;;;;14.20;79.10;;;;;;8375384;28;20334;-71
2023/04/27 19:25:46;;;;;;;;;;;14.20;80.00;;;;;;8365152;28;19929;-71
2023/04/27 19:29:48;;;;;;;;;;;14.10;79.70;;;;;;8361957;28;19925;-71
2023/04/27 19:33:50;;;;;;;;;;;14.00;79.50;;;;;;8359827;28;19924;-71
2023/04/27 19:37:55;;;;;;;;;;;14.00;78.70;;;;;;8376574;28;19932;-71
2023/04/27 19:41:57;;;;;;;;;;;13.90;78.60;;;;;;8359060;28;20371;-71
2023/04/27 19:46:02;;;;;;;;;;;13.80;78.00;;;;;;8353514;28;19936;-71
2023/04/27 19:50:04;;;;;;;;;;;13.70;79.20;;;;;;8362209;28;19936;-70
2023/04/27 19:54:06;;;;;;;;;;;13.70;78.20;;;;;;8362996;28;19924;-71
2023/04/27 19:58:07;;;;;;;;;;;13.60;78.60;;;;;;8361017;28;19925;-71
2023/04/27 20:02:09;;;;;;;;;;;13.60;78.80;;;;;;8357374;28;19931;-71
2023/04/27 20:06:11;;;;;;;;;;;13.50;77.80;;;;;;8335841;28;19977;-71
2023/04/27 20:10:13;;;;;;;;;;;13.50;78.80;;;;;;8357184;28;19951;-71
2023/04/27 20:14:14;;;;;;;;;;;13.40;78.00;;;;;;8371764;28;20019;-71
2023/04/27 20:18:16;;;;;;;;;;;13.40;78.40;;;;;;8358868;28;19929;-71
2023/04/27 20:22:18;;;;;;;;;;;13.30;78.30;;;;;;8356237;28;19932;-71
2023/04/27 20:26:19;;;;;;;;;;;13.30;78.00;;;;;;8357157;28;19932;-71
2023/04/27 20:30:21;;;;;;;;;;;13.20;77.90;;;;;;8346262;28;19968;-71
2023/04/27 20:34:23;;;;;;;;;;;13.20;79.40;;;;;;8370814;28;19933;-71
2023/04/27 20:38:24;;;;;;;;;;;13.20;78.60;;;;;;8359922;28;19928;-71
2023/04/27 20:42:28;;;;;;;;;;;13.10;78.30;;;;;;8370388;28;20323;-70
2023/04/27 20:46:30;;;;;;;;;;;13.10;77.80;;;;;;8359035;28;19929;-71
2023/04/27 20:50:32;;;;;;;;;;;13.10;78.10;;;;;;8360437;28;20019;-71
2023/04/27 21:04:41;;;;;;;;;;;12.90;78.10;;;;;;8386114;28;19920;-71
2023/04/27 21:08:43;;;;;;;;;;;12.90;77.80;;;;;;8389946;28;20486;-71
2023/04/27 21:12:44;;;;;;;;;;;12.80;77.50;;;;;;8394262;28;19932;-71
2023/04/27 21:16:46;;;;;;;;;;;12.70;77.50;;;;;;8405456;28;19925;-71
2023/04/27 21:20:48;;;;;;;;;;;12.70;77.70;;;;;;8392474;28;20010;-71
2023/04/27 21:24:49;;;;;;;;;;;12.60;77.30;;;;;;8386073;28;19937;-71
2023/04/27 21:28:51;;;;;;;;;;;12.60;77.20;;;;;;8392041;28;19932;-71
2023/04/27 21:32:53;;;;;;;;;;;12.60;77.70;;;;;;8386946;28;19932;-71
2023/04/27 21:36:54;;;;;;;;;;;12.50;77.70;;;;;;8389528;28;19925;-71
2023/04/27 21:40:57;;;;;;;;;;;12.50;77.70;;;;;;8372368;28;19936;-70
2023/04/27 21:44:59;;;;;;;;;;;12.40;77.80;;;;;;8406583;28;19925;-71
2023/04/27 21:49:01;;;;;;;;;;;12.40;77.80;;;;;;8409347;28;19975;-71
2023/04/27 21:53:03;;;;;;;;;;;12.40;78.20;;;;;;8410287;28;19934;-71
2023/04/27 21:57:04;;;;;;;;;;;12.30;77.80;;;;;;8383235;28;19955;-71
2023/04/27 22:01:06;;;;;;;;;;;12.30;78.10;;;;;;8381870;28;19928;-71
2023/04/27 22:05:08;;;;;;;;;;;12.30;78.60;;;;;;8385064;28;20425;-71
2023/04/27 22:09:11;;;;;;;;;;;12.20;78.50;;;;;;8392942;28;19979;-71
2023/04/27 22:13:12;;;;;;;;;;;12.20;78.60;;;;;;8387486;28;19925;-71
2023/04/27 22:17:17;;;;;;;;;;;12.20;78.70;;;;;;8369547;28;19954;-71
2023/04/27 22:21:18;;;;;;;;;;;12.10;78.70;;;;;;8386527;28;19932;-71
2023/04/27 22:25:20;;;;;;;;;;;12.10;78.80;;;;;;8399876;28;19929;-71
2023/04/27 22:29:22;;;;;;;;;;;12.10;78.70;;;;;;8374879;28;20401;-71
2023/04/27 22:33:23;;;;;;;;;;;12.00;78.70;;;;;;8400881;28;19928;-71
2023/04/27 22:37:25;;;;;;;;;;;12.00;79.00;;;;;;8380340;28;20657;-71
2023/04/27 22:41:29;;;;;;;;;;;12.00;79.10;;;;;;8388165;28;19978;-71
2023/04/27 23:00:40;;;;;;;;;;;11.80;79.60;;;;;;8395966;28;19928;-71
2023/04/27 23:04:42;;;;;;;;;;;11.70;79.40;;;;;;8399035;28;19936;-71
2023/04/27 23:08:45;;;;;;;;;;;11.70;79.20;;;;;;8390690;28;19974;-71
2023/04/27 23:12:47;;;;;;;;;;;11.70;79.30;;;;;;8403179;28;19932;-71
2023/04/27 23:16:49;;;;;;;;;;;11.70;79.60;;;;;;8393701;28;19929;-71
2023/04/27 23:20:52;;;;;;;;;;;11.60;80.00;;;;;;8398532;28;19928;-71
2023/04/27 23:24:54;;;;;;;;;;;11.60;79.20;;;;;;8375073;28;20023;-71
2023/04/27 23:28:56;;;;;;;;;;;11.60;79.40;;;;;;8398550;28;19925;-71
2023/04/27 23:32:57;;;;;;;;;;;11.50;79.50;;;;;;8408190;28;19963;-70
2023/04/27 23:36:59;;;;;;;;;;;11.50;79.80;;;;;;8391356;28;19976;-71
2023/04/27 23:41:01;;;;;;;;;;;11.50;79.30;;;;;;8394035;28;19987;-71
2023/04/27 23:45:03;;;;;;;;;;;11.50;80.20;;;;;;8400334;28;19934;-71
2023/04/27 23:49:05;;;;;;;;;;;11.40;80.10;;;;;;8385855;28;19924;-71
2023/04/27 23:53:07;;;;;;;;;;;11.40;79.70;;;;;;8374881;28;19925;-71
2023/04/27 23:57:08;;;;;;;;;;;11.40;79.40;;;;;;8402910;28;20379;-71
